Time;durP1;ratioP1;P1;durP2;ratioP2;P2;SDS_P1;SDS_P2;PMS_P1;PMS_P2;Temp;Humidity;BMP_temperature;BMP_pressure;BME280_temperature;BME280_humidity;BME280_pressure;Samples;Min_cycle;Max_cycle;Signal;HPM_P1;HPM_P2
2023/04/05 00:01:27;;;;;;;4.07;3.20;;;2.80;99.90;;;;;;5052110;28;20484;-74
2023/04/05 00:03:54;;;;;;;4.13;3.03;;;2.70;99.90;;;;;;5052116;28;20190;-73
2023/04/05 00:06:25;;;;;;;4.93;2.77;;;2.70;99.90;;;;;;5050944;28;20439;-73
2023/04/05 00:08:57;;;;;;;8.20;3.20;;;2.70;99.90;;;;;;5051717;28;20431;-74
2023/04/05 00:11:24;;;;;;;3.37;3.07;;;2.60;99.90;;;;;;5052114;28;20441;-73
2023/04/05 00:13:50;;;;;;;4.43;2.40;;;2.60;99.90;;;;;;5050676;28;20492;-73
2023/04/05 00:16:16;;;;;;;4.23;2.77;;;2.60;99.90;;;;;;5050784;28;20453;-73
2023/04/05 00:18:48;;;;;;;5.33;3.53;;;2.60;99.90;;;;;;5051651;28;20173;-73
2023/04/05 00:21:21;;;;;;;5.57;3.47;;;2.60;99.90;;;;;;5052095;28;20451;-73
2023/04/05 00:23:52;;;;;;;5.57;2.83;;;2.60;99.90;;;;;;5051978;28;20424;-73
2023/04/05 00:26:18;;;;;;;9.57;3.40;;;2.60;99.90;;;;;;5051889;28;20411;-72
2023/04/05 00:28:44;;;;;;;9.17;2.60;;;2.60;99.90;;;;;;5051985;28;20405;-73
2023/04/05 00:31:10;;;;;;;5.37;3.33;;;2.60;99.90;;;;;;5051847;28;20471;-73
2023/04/05 00:33:36;;;;;;;8.20;3.87;;;2.70;99.90;;;;;;5051552;28;20194;-73
2023/04/05 00:36:21;;;;;;;4.00;2.97;;;2.70;99.90;;;;;;5053866;28;20898;-74
2023/04/05 00:38:48;;;;;;;7.60;5.00;;;2.70;99.90;;;;;;5054042;28;20183;-73
2023/04/05 00:41:14;;;;;;;7.30;3.10;;;2.80;99.90;;;;;;5055620;28;20960;-73
2023/04/05 00:43:41;;;;;;;5.13;2.83;;;2.80;99.90;;;;;;5054673;28;20447;-73
2023/04/05 00:46:07;;;;;;;7.23;3.27;;;2.80;99.90;;;;;;5055645;28;20945;-73
2023/04/05 00:48:34;;;;;;;2.90;2.67;;;2.90;99.90;;;;;;5055561;28;20535;-73
2023/04/05 00:51:00;;;;;;;3.93;3.03;;;2.90;99.90;;;;;;5055502;28;21160;-74
2023/04/05 00:53:26;;;;;;;3.70;2.80;;;2.90;99.90;;;;;;5055478;28;20435;-74
2023/04/05 00:55:53;;;;;;;3.80;2.90;;;3.00;99.90;;;;;;5055513;28;20393;-72
2023/04/05 00:58:22;;;;;;;5.50;3.70;;;3.00;99.90;;;;;;5055184;28;20401;-72
2023/04/05 01:01:25;;;;;;;4.63;3.17;;;3.10;99.90;;;;;;5053841;28;20405;-73
2023/04/05 01:04:01;;;;;;;3.47;2.97;;;3.10;99.90;;;;;;5053924;28;20432;-73
2023/04/05 01:06:42;;;;;;;7.23;3.60;;;3.20;99.90;;;;;;5054103;28;20427;-73
2023/04/05 01:09:40;;;;;;;3.50;2.63;;;3.20;99.90;;;;;;5054996;28;20413;-73
2023/04/05 01:12:08;;;;;;;6.83;3.50;;;3.20;99.90;;;;;;5043001;28;20471;-73
2023/04/05 01:14:49;;;;;;;5.73;3.90;;;3.30;99.90;;;;;;5054974;28;20859;-73
2023/04/05 01:17:20;;;;;;;4.37;3.37;;;3.30;99.90;;;;;;5052950;28;20945;-72
2023/04/05 01:19:57;;;;;;;6.70;3.77;;;3.30;99.90;;;;;;5055046;28;20496;-73
2023/04/05 01:22:57;;;;;;;11.30;3.40;;;3.30;99.90;;;;;;5055218;28;20428;-73
2023/04/05 01:25:43;;;;;;;2.93;2.20;;;3.30;99.90;;;;;;5054883;28;20416;-73
2023/04/05 01:28:21;;;;;;;3.10;2.80;;;3.30;99.90;;;;;;5054324;28;20436;-72
2023/04/05 01:30:57;;;;;;;5.20;3.40;;;3.30;99.90;;;;;;5054045;28;20484;-73
2023/04/05 01:34:00;;;;;;;3.53;2.97;;;3.30;99.90;;;;;;5053050;28;20526;-71
2023/04/05 01:36:55;;;;;;;8.90;3.53;;;3.40;99.90;;;;;;5054691;28;20797;-73
2023/04/05 01:39:23;;;;;;;3.10;2.80;;;3.40;99.90;;;;;;5048586;28;20513;-72
2023/04/05 01:41:49;;;;;;;6.00;2.90;;;3.40;99.90;;;;;;5054684;28;20397;-73
2023/04/05 01:44:15;;;;;;;4.93;3.37;;;3.40;99.90;;;;;;5052934;28;20433;-73
2023/04/05 01:46:41;;;;;;;5.67;4.00;;;3.40;99.90;;;;;;5053051;28;20409;-73
2023/04/05 01:49:07;;;;;;;6.13;3.60;;;3.50;99.90;;;;;;5054110;28;20179;-73
2023/04/05 01:51:32;;;;;;;4.37;3.13;;;3.50;99.90;;;;;;5054313;28;20194;-73
2023/04/05 01:53:58;;;;;;;9.83;4.17;;;3.60;99.90;;;;;;5054189;28;20933;-73
2023/04/05 01:56:23;;;;;;;7.10;3.67;;;3.60;99.90;;;;;;5054248;28;20177;-74
2023/04/05 01:58:49;;;;;;;5.80;4.00;;;3.60;99.90;;;;;;5053863;28;20178;-73
2023/04/05 02:01:15;;;;;;;4.93;4.50;;;3.60;99.90;;;;;;5054188;28;20777;-72
2023/04/05 02:03:40;;;;;;;4.37;3.17;;;3.70;99.90;;;;;;5053995;28;20207;-72
2023/04/05 02:06:06;;;;;;;7.87;3.60;;;3.70;99.90;;;;;;5054068;28;20517;-73
2023/04/05 02:08:31;;;;;;;6.43;3.80;;;3.70;99.90;;;;;;5053819;28;20167;-73
2023/04/05 02:10:57;;;;;;;5.43;3.27;;;3.70;99.90;;;;;;5054200;28;20173;-73
2023/04/05 02:13:22;;;;;;;5.63;3.83;;;3.70;99.90;;;;;;5053883;28;20289;-72
2023/04/05 02:15:49;;;;;;;5.10;3.50;;;3.70;99.90;;;;;;5054140;28;20170;-73
2023/04/05 02:18:14;;;;;;;4.07;3.23;;;3.70;99.90;;;;;;5052069;28;20170;-72
2023/04/05 02:20:40;;;;;;;4.43;4.03;;;3.80;99.90;;;;;;5053642;28;20405;-72
2023/04/05 02:23:07;;;;;;;5.40;3.37;;;3.70;99.90;;;;;;5053762;28;20171;-73
2023/04/05 02:25:32;;;;;;;5.17;3.40;;;3.70;99.90;;;;;;5053790;28;20163;-73
2023/04/05 02:27:58;;;;;;;3.87;2.50;;;3.70;99.90;;;;;;5052211;28;20423;-73
2023/04/05 02:30:26;;;;;;;5.50;2.83;;;3.70;99.90;;;;;;5053696;28;20517;-74
2023/04/05 02:32:51;;;;;;;8.23;4.13;;;3.70;99.90;;;;;;5053488;28;20232;-73
2023/04/05 02:35:17;;;;;;;6.37;3.60;;;3.70;99.90;;;;;;5053804;28;20942;-73
2023/04/05 02:37:42;;;;;;;4.33;3.40;;;3.70;99.90;;;;;;5053254;28;20177;-73
2023/04/05 02:40:13;;;;;;;6.17;3.70;;;3.70;99.90;;;;;;5053705;28;20167;-73
2023/04/05 02:42:39;;;;;;;3.70;3.00;;;3.70;99.90;;;;;;5053029;28;20322;-73
2023/04/05 02:45:07;;;;;;;3.53;3.07;;;3.60;99.90;;;;;;5053145;28;21064;-74
2023/04/05 02:47:33;;;;;;;2.90;2.67;;;3.60;99.90;;;;;;5051772;28;20636;-72
2023/04/05 02:49:58;;;;;;;3.87;3.00;;;3.60;99.90;;;;;;5053050;28;20416;-72
2023/04/05 02:52:24;;;;;;;6.67;4.47;;;3.50;99.90;;;;;;5051571;28;20557;-73
2023/04/05 02:54:49;;;;;;;5.60;3.70;;;3.50;99.90;;;;;;5053129;28;20197;-73
2023/04/05 02:57:15;;;;;;;5.30;3.93;;;3.50;99.90;;;;;;5052949;28;20533;-74
2023/04/05 02:59:41;;;;;;;3.80;3.23;;;3.40;99.90;;;;;;5052631;28;20171;-73
2023/04/05 03:02:09;;;;;;;7.67;3.57;;;3.30;99.90;;;;;;5052486;28;20170;-72
2023/04/05 03:04:34;;;;;;;8.77;3.83;;;3.30;99.90;;;;;;5052763;28;20524;-72
2023/04/05 03:07:01;;;;;;;3.80;2.93;;;3.20;99.90;;;;;;5052727;28;20493;-72
2023/04/05 03:09:32;;;;;;;10.27;6.17;;;3.20;99.90;;;;;;5052844;28;20174;-73
2023/04/05 03:12:02;;;;;;;4.93;4.20;;;3.10;99.90;;;;;;5052744;28;20476;-72
2023/04/05 03:14:31;;;;;;;6.30;3.53;;;3.10;99.90;;;;;;5052295;28;20531;-73
2023/04/05 03:16:56;;;;;;;6.33;4.00;;;3.00;99.90;;;;;;5052319;28;20407;-73
2023/04/05 03:19:23;;;;;;;6.80;3.70;;;3.00;99.90;;;;;;5051645;28;20413;-72
2023/04/05 03:21:49;;;;;;;8.40;4.13;;;3.00;99.90;;;;;;5052297;28;20175;-72
2023/04/05 03:24:15;;;;;;;5.60;4.30;;;2.90;99.90;;;;;;5052096;28;20535;-73
2023/04/05 03:26:44;;;;;;;3.57;3.27;;;2.90;99.90;;;;;;5052083;28;20485;-72
2023/04/05 03:29:09;;;;;;;5.90;3.30;;;2.90;99.90;;;;;;5051872;28;20174;-72
2023/04/05 03:31:35;;;;;;;4.63;3.20;;;2.80;99.90;;;;;;5052090;28;20452;-73
2023/04/05 03:34:00;;;;;;;4.73;4.20;;;2.70;99.90;;;;;;5051087;28;20187;-72
2023/04/05 03:36:29;;;;;;;4.80;4.13;;;2.60;99.90;;;;;;5052323;28;20167;-73
2023/04/05 03:38:55;;;;;;;5.27;4.23;;;2.50;99.90;;;;;;5052112;28;20693;-73
2023/04/05 03:41:21;;;;;;;5.07;3.27;;;2.40;99.90;;;;;;5052582;28;20433;-75
2023/04/05 03:43:48;;;;;;;3.00;2.70;;;2.40;99.90;;;;;;5050768;28;20483;-72
2023/04/05 03:46:13;;;;;;;5.10;2.90;;;2.30;99.90;;;;;;5052307;28;20203;-74
2023/04/05 03:48:39;;;;;;;4.23;2.80;;;2.20;99.90;;;;;;5050753;28;20413;-72
2023/04/05 03:51:06;;;;;;;6.30;3.33;;;2.10;99.90;;;;;;5052467;28;20734;-74
2023/04/05 03:53:32;;;;;;;4.77;3.10;;;2.00;99.90;;;;;;5052127;28;20183;-73
2023/04/05 03:55:57;;;;;;;3.30;3.00;;;2.00;99.90;;;;;;5052604;28;20822;-74
2023/04/05 03:58:25;;;;;;;5.90;3.90;;;1.90;99.90;;;;;;5050313;28;20172;-72
2023/04/05 04:00:51;;;;;;;5.93;3.07;;;1.80;99.90;;;;;;5051785;28;20170;-73
2023/04/05 04:03:17;;;;;;;5.23;3.30;;;1.70;99.90;;;;;;5052268;28;20417;-72
2023/04/05 04:05:43;;;;;;;5.30;2.80;;;1.70;99.90;;;;;;5052362;28;20439;-73
2023/04/05 04:08:08;;;;;;;3.57;2.93;;;1.60;99.90;;;;;;5051693;28;20640;-73
2023/04/05 04:10:35;;;;;;;5.30;2.80;;;1.50;99.90;;;;;;5053705;28;20193;-73
2023/04/05 04:13:00;;;;;;;4.07;2.63;;;1.50;99.90;;;;;;5055901;28;20200;-73
2023/04/05 04:15:26;;;;;;;17.30;7.90;;;1.40;99.90;;;;;;5056095;28;20401;-72
2023/04/05 04:17:51;;;;;;;26.40;11.67;;;1.30;99.90;;;;;;5054736;28;20575;-72
2023/04/05 04:20:17;;;;;;;12.50;5.80;;;1.30;99.90;;;;;;5054719;28;20533;-73
2023/04/05 04:22:42;;;;;;;8.87;5.40;;;1.30;99.90;;;;;;5056009;28;20264;-73
2023/04/05 04:25:09;;;;;;;7.90;3.63;;;1.20;99.90;;;;;;5055946;28;20674;-73
2023/04/05 04:27:38;;;;;;;6.23;3.53;;;1.20;99.90;;;;;;5055501;28;20170;-73
2023/04/05 04:30:06;;;;;;;9.13;4.07;;;1.10;99.90;;;;;;5056131;28;20406;-74
2023/04/05 04:32:50;;;;;;;6.80;4.07;;;1.10;99.90;;;;;;5054275;28;20882;-72
2023/04/05 04:35:19;;;;;;;4.77;3.53;;;1.10;99.90;;;;;;5055302;28;20450;-73
2023/04/05 04:37:45;;;;;;;4.93;3.10;;;1.00;99.90;;;;;;5055216;28;20420;-73
2023/04/05 04:40:16;;;;;;;4.93;3.43;;;1.00;99.90;;;;;;5055770;28;20494;-73
2023/04/05 04:42:45;;;;;;;4.23;2.73;;;0.90;99.90;;;;;;5055848;28;20901;-73
2023/04/05 04:45:17;;;;;;;4.67;2.60;;;0.90;99.90;;;;;;5055408;28;20431;-73
2023/04/05 04:47:47;;;;;;;4.27;2.67;;;0.90;99.90;;;;;;5055179;28;20434;-73
2023/04/05 04:50:14;;;;;;;5.87;3.27;;;0.90;99.90;;;;;;5055482;28;20403;-72
2023/04/05 04:52:40;;;;;;;6.53;2.43;;;0.80;99.90;;;;;;5055479;28;20435;-74
2023/04/05 04:55:08;;;;;;;3.30;2.43;;;0.80;99.90;;;;;;5055149;28;20420;-71
2023/04/05 04:57:33;;;;;;;3.27;2.87;;;0.80;99.90;;;;;;5054840;28;20416;-72
2023/04/05 04:59:59;;;;;;;3.20;2.20;;;0.80;99.90;;;;;;5054778;28;20403;-72
2023/04/05 05:02:25;;;;;;;9.97;2.77;;;0.70;99.90;;;;;;5055042;28;20200;-72
2023/04/05 05:04:51;;;;;;;5.37;2.87;;;0.70;99.90;;;;;;5054546;28;20197;-71
2023/04/05 05:07:17;;;;;;;4.07;3.10;;;0.70;99.90;;;;;;5054979;28;20405;-73
2023/04/05 05:09:43;;;;;;;6.50;3.70;;;0.70;99.90;;;;;;5054177;28;20167;-73
2023/04/05 05:12:09;;;;;;;2.90;2.40;;;0.70;99.90;;;;;;5055283;28;20965;-74
2023/04/05 05:14:34;;;;;;;3.47;2.93;;;0.70;99.90;;;;;;5054915;28;20203;-72
2023/04/05 05:17:00;;;;;;;5.13;3.10;;;0.60;99.90;;;;;;5054318;28;20285;-72
2023/04/05 05:19:25;;;;;;;4.73;3.33;;;0.70;99.90;;;;;;5054496;28;20575;-71
2023/04/05 05:21:52;;;;;;;9.90;4.53;;;0.70;99.90;;;;;;5054803;28;20172;-72
2023/04/05 05:24:18;;;;;;;4.10;3.40;;;0.70;99.90;;;;;;5054683;28;20560;-72
2023/04/05 05:26:44;;;;;;;4.30;3.10;;;0.70;99.90;;;;;;5054156;28;20407;-72
2023/04/05 05:29:10;;;;;;;5.53;2.90;;;0.70;99.90;;;;;;5053488;28;20971;-74
2023/04/05 05:31:35;;;;;;;4.17;3.70;;;0.80;99.90;;;;;;5054962;28;20194;-74
2023/04/05 05:34:01;;;;;;;2.97;2.53;;;0.90;99.90;;;;;;5054213;28;20178;-72
2023/04/05 05:36:27;;;;;;;5.93;3.00;;;1.20;99.90;;;;;;5054599;28;20251;-71
2023/04/05 05:38:56;;;;;;;3.47;2.90;;;1.50;99.90;;;;;;5053824;28;20690;-71
2023/04/05 05:41:21;;;;;;;4.87;3.80;;;1.90;99.90;;;;;;5053378;28;20170;-74
2023/04/05 05:43:47;;;;;;;5.80;3.70;;;2.40;99.90;;;;;;5054193;28;20799;-72
2023/04/05 05:46:12;;;;;;;5.37;3.67;;;2.90;99.90;;;;;;5054116;28;20608;-73
2023/04/05 05:48:39;;;;;;;5.53;3.67;;;3.30;99.90;;;;;;5053897;28;20175;-72
2023/04/05 05:51:08;;;;;;;8.00;4.83;;;3.60;99.90;;;;;;5053841;28;20641;-72
2023/04/05 05:53:35;;;;;;;6.73;3.77;;;4.00;99.90;;;;;;5054220;28;20483;-74
2023/04/05 05:56:01;;;;;;;4.97;3.57;;;4.20;99.90;;;;;;5052563;28;20405;-72
2023/04/05 05:58:26;;;;;;;7.50;3.77;;;4.60;99.90;;;;;;5053942;28;20736;-72
2023/04/05 06:00:55;;;;;;;8.13;5.40;;;4.90;99.90;;;;;;5053669;28;20171;-72
2023/04/05 06:03:24;;;;;;;6.30;4.13;;;5.40;99.90;;;;;;5053587;28;20193;-72
2023/04/05 06:05:51;;;;;;;7.33;4.10;;;5.90;99.90;;;;;;5054389;28;20409;-74
2023/04/05 06:08:17;;;;;;;6.60;4.13;;;6.50;99.90;;;;;;5054515;28;20766;-74
2023/04/05 06:10:42;;;;;;;6.60;3.90;;;7.10;99.90;;;;;;5054213;28;20398;-74
2023/04/05 06:13:08;;;;;;;4.80;3.67;;;7.80;99.90;;;;;;5054228;28;20221;-72
2023/04/05 06:15:34;;;;;;;7.47;4.17;;;8.70;99.90;;;;;;5053708;28;20237;-74
2023/04/05 06:18:00;;;;;;;7.90;3.73;;;9.40;99.90;;;;;;5053817;28;20173;-72
2023/04/05 06:20:26;;;;;;;8.00;4.20;;;10.10;99.90;;;;;;5053766;28;20401;-73
2023/04/05 06:22:51;;;;;;;8.93;5.83;;;10.80;96.80;;;;;;5053347;28;20639;-73
2023/04/05 06:25:17;;;;;;;5.33;3.90;;;11.40;90.90;;;;;;5053738;28;20666;-74
2023/04/05 06:27:42;;;;;;;9.13;5.00;;;11.80;82.20;;;;;;5051838;28;20170;-73
2023/04/05 06:30:08;;;;;;;8.53;4.13;;;12.10;74.30;;;;;;5052773;28;20213;-73
2023/04/05 06:32:34;;;;;;;6.40;4.87;;;12.70;70.80;;;;;;5052912;28;20282;-73
2023/04/05 06:35:02;;;;;;;7.50;4.57;;;13.30;67.80;;;;;;5053322;28;20453;-74
2023/04/05 06:37:28;;;;;;;5.57;4.57;;;13.70;64.10;;;;;;5052877;28;20163;-73
2023/04/05 06:39:54;;;;;;;12.23;4.73;;;14.40;59.00;;;;;;5053343;28;20417;-73
2023/04/05 06:42:19;;;;;;;6.80;5.30;;;14.30;55.30;;;;;;5053829;28;20458;-73
2023/04/05 06:44:45;;;;;;;6.80;4.53;;;14.10;54.10;;;;;;5052267;28;20190;-75
2023/04/05 06:47:11;;;;;;;6.23;5.07;;;15.00;54.90;;;;;;5051590;28;20221;-73
2023/04/05 06:49:36;;;;;;;6.27;4.90;;;15.90;53.30;;;;;;5054483;28;20163;-74
2023/04/05 06:52:04;;;;;;;7.70;4.70;;;16.50;50.90;;;;;;5052769;28;20195;-75
2023/04/05 06:54:31;;;;;;;6.00;5.37;;;17.00;48.50;;;;;;5052735;28;20193;-73
2023/04/05 06:56:57;;;;;;;6.67;4.87;;;17.60;46.60;;;;;;5052329;28;20397;-73
2023/04/05 06:59:22;;;;;;;8.50;4.43;;;18.20;46.20;;;;;;5054250;28;20475;-75
2023/04/05 07:01:48;;;;;;;8.50;4.47;;;17.90;43.30;;;;;;5052402;28;20171;-73
2023/04/05 07:04:13;;;;;;;4.63;4.20;;;18.10;43.10;;;;;;5053025;28;20213;-73
2023/04/05 07:06:39;;;;;;;5.87;4.67;;;17.90;41.80;;;;;;5053544;28;20217;-74
2023/04/05 07:09:04;;;;;;;4.80;4.20;;;18.70;42.90;;;;;;5052540;28;20182;-75
2023/04/05 07:11:33;;;;;;;7.43;4.40;;;19.00;41.30;;;;;;5052930;28;20186;-74
2023/04/05 07:13:59;;;;;;;6.33;4.33;;;19.20;39.80;;;;;;5053230;28;20199;-73
2023/04/05 07:16:25;;;;;;;5.97;4.23;;;18.90;39.70;;;;;;5052598;28;20413;-75
2023/04/05 07:18:50;;;;;;;5.90;4.93;;;18.30;40.10;;;;;;5052726;28;20401;-72
2023/04/05 07:21:16;;;;;;;5.80;5.10;;;18.20;40.20;;;;;;5053896;28;20178;-74
2023/04/05 07:23:41;;;;;;;6.30;5.00;;;18.00;40.10;;;;;;5052047;28;20202;-75
2023/04/05 07:26:07;;;;;;;6.57;5.60;;;18.10;41.10;;;;;;5054054;28;20674;-74
2023/04/05 07:28:34;;;;;;;12.10;5.13;;;18.70;41.00;;;;;;5051033;28;20595;-73
2023/04/05 07:31:01;;;;;;;6.60;5.63;;;19.40;40.20;;;;;;5050692;28;20171;-73
2023/04/05 07:33:26;;;;;;;7.90;5.20;;;20.20;38.90;;;;;;5054258;28;20425;-73
2023/04/05 07:35:55;;;;;;;8.20;5.80;;;21.00;38.10;;;;;;5055964;28;20398;-74
2023/04/05 07:38:21;;;;;;;8.50;6.10;;;21.50;36.60;;;;;;5053625;28;20238;-73
2023/04/05 07:40:48;;;;;;;7.07;5.90;;;21.50;35.10;;;;;;5051821;28;20493;-74
2023/04/05 07:43:14;;;;;;;8.03;5.63;;;21.80;34.60;;;;;;5051932;28;20201;-74
2023/04/05 07:45:40;;;;;;;5.60;5.10;;;22.20;34.70;;;;;;5054838;28;20406;-74
2023/04/05 07:48:05;;;;;;;7.80;5.00;;;22.70;34.00;;;;;;5054779;28;20398;-73
2023/04/05 07:50:33;;;;;;;5.80;5.10;;;23.20;34.20;;;;;;5051153;28;20174;-75
2023/04/05 07:52:58;;;;;;;7.63;5.50;;;23.80;33.30;;;;;;5051942;28;20194;-72
2023/04/05 07:55:26;;;;;;;7.90;6.57;;;24.10;32.50;;;;;;5053413;28;20401;-74
2023/04/05 07:57:52;;;;;;;10.10;6.10;;;24.10;31.10;;;;;;5053062;28;20159;-73
2023/04/05 08:00:19;;;;;;;6.00;5.50;;;24.10;29.80;;;;;;5051948;28;20402;-75
2023/04/05 08:02:44;;;;;;;7.60;6.23;;;24.00;30.00;;;;;;5053697;28;20405;-75
2023/04/05 08:05:10;;;;;;;13.37;6.73;;;23.80;30.30;;;;;;5051304;28;20433;-74
2023/04/05 08:07:36;;;;;;;5.90;5.40;;;24.30;30.70;;;;;;5052313;28;20550;-73
2023/04/05 08:10:02;;;;;;;6.57;5.37;;;24.90;30.40;;;;;;5053988;28;20624;-74
2023/04/05 08:12:30;;;;;;;6.10;5.33;;;25.50;29.40;;;;;;5052340;28;20202;-74
2023/04/05 08:14:55;;;;;;;5.67;5.17;;;25.90;29.40;;;;;;5053593;28;20765;-72
2023/04/05 08:17:21;;;;;;;6.20;5.60;;;27.10;29.30;;;;;;5051443;28;20488;-73
2023/04/05 08:19:48;;;;;;;7.10;6.40;;;28.30;28.60;;;;;;5053869;28;20163;-72
2023/04/05 08:22:15;;;;;;;9.33;6.43;;;29.30;28.30;;;;;;5053718;28;20220;-71
2023/04/05 08:24:40;;;;;;;7.40;5.10;;;30.50;27.00;;;;;;5052007;28;20453;-71
2023/04/05 08:27:06;;;;;;;6.17;5.30;;;31.30;26.30;;;;;;5051468;28;20448;-72
2023/04/05 08:29:32;;;;;;;9.43;5.37;;;32.20;25.90;;;;;;5052883;28;20688;-71
2023/04/05 08:31:57;;;;;;;6.93;6.27;;;33.20;25.20;;;;;;5051790;28;20289;-72
2023/04/05 08:34:23;;;;;;;6.47;5.57;;;33.80;24.30;;;;;;5050430;28;20179;-73
2023/04/05 08:36:48;;;;;;;6.77;5.77;;;34.50;23.80;;;;;;5049744;28;20159;-72
2023/04/05 08:39:14;;;;;;;5.83;5.30;;;35.40;23.20;;;;;;5050599;28;20159;-72
2023/04/05 08:41:46;;;;;;;5.90;5.37;;;35.60;21.50;;;;;;5049665;28;20654;-72
2023/04/05 08:44:12;;;;;;;7.23;5.93;;;36.10;21.90;;;;;;5050794;28;20183;-72
2023/04/05 08:46:38;;;;;;;5.37;4.93;;;36.60;20.70;;;;;;5050967;28;20532;-72
2023/04/05 08:49:07;;;;;;;5.60;5.20;;;36.50;21.20;;;;;;5050689;28;20532;-72
2023/04/05 08:51:37;;;;;;;6.47;5.73;;;36.90;21.00;;;;;;5051319;28;20628;-72
2023/04/05 08:54:03;;;;;;;9.67;6.17;;;37.40;20.70;;;;;;5050857;28;20444;-72
2023/04/05 08:56:34;;;;;;;5.00;4.60;;;37.50;20.40;;;;;;5052543;28;20409;-72
2023/04/05 08:59:05;;;;;;;5.47;4.97;;;38.00;20.20;;;;;;5053308;28;20197;-72
2023/04/05 09:01:35;;;;;;;5.93;5.40;;;38.40;20.40;;;;;;5053650;28;20455;-72
2023/04/05 09:04:05;;;;;;;6.53;5.43;;;38.90;19.70;;;;;;5053141;28;20404;-72
2023/04/05 09:06:31;;;;;;;5.30;4.80;;;39.30;19.00;;;;;;5054808;28;20466;-72
2023/04/05 09:08:57;;;;;;;5.73;5.23;;;39.80;19.30;;;;;;5054262;28;20796;-72
2023/04/05 09:11:23;;;;;;;4.80;4.40;;;40.20;18.70;;;;;;5054351;28;20454;-72
2023/04/05 09:13:48;;;;;;;6.00;5.50;;;40.70;18.90;;;;;;5052857;28;20449;-72
2023/04/05 09:16:15;;;;;;;5.80;5.20;;;41.40;18.80;;;;;;5054347;28;20392;-72
2023/04/05 09:18:41;;;;;;;5.47;4.97;;;41.90;18.40;;;;;;5054199;28;20558;-73
2023/04/05 09:21:08;;;;;;;4.83;4.30;;;42.60;18.50;;;;;;5054321;28;20384;-71
2023/04/05 09:23:34;;;;;;;5.10;4.70;;;43.00;18.10;;;;;;5054065;28;20179;-72
2023/04/05 09:26:02;;;;;;;5.60;5.10;;;43.00;17.60;;;;;;5054388;28;20387;-72
2023/04/05 09:28:40;;;;;;;5.30;4.80;;;43.50;18.40;;;;;;5054073;28;20372;-72
2023/04/05 09:31:05;;;;;;;5.80;5.20;;;43.50;16.70;;;;;;5054320;28;20429;-73
2023/04/05 09:33:31;;;;;;;5.87;5.37;;;43.60;16.80;;;;;;5053982;28;20916;-72
2023/04/05 09:35:57;;;;;;;6.53;5.20;;;43.60;17.20;;;;;;5053777;28;20209;-71
2023/04/05 09:38:42;;;;;;;5.53;5.13;;;43.70;17.20;;;;;;5054035;28;20170;-72
2023/04/05 09:41:09;;;;;;;5.10;4.77;;;44.10;17.20;;;;;;5052783;28;20171;-72
2023/04/05 09:43:40;;;;;;;5.27;4.87;;;43.50;15.70;;;;;;5053853;28;20893;-72
2023/04/05 09:46:06;;;;;;;6.60;5.00;;;43.10;16.00;;;;;;5053899;28;20380;-72
2023/04/05 09:48:58;;;;;;;6.67;5.60;;;43.00;16.30;;;;;;5053527;28;20409;-72
2023/04/05 09:51:31;;;;;;;5.57;5.00;;;43.10;16.40;;;;;;5052567;28;20808;-73
2023/04/05 09:54:04;;;;;;;7.17;5.60;;;43.40;16.50;;;;;;5053743;28;20404;-72
2023/04/05 09:56:35;;;;;;;5.27;4.90;;;43.40;16.60;;;;;;5053803;28;20372;-73
2023/04/05 09:59:09;;;;;;;6.07;5.57;;;43.80;16.80;;;;;;5053537;28;20376;-72
2023/04/05 10:01:42;;;;;;;5.83;5.40;;;43.50;15.60;;;;;;5051346;28;20808;-73
2023/04/05 10:04:07;;;;;;;5.90;5.30;;;43.70;16.30;;;;;;5053203;28;20754;-72
2023/04/05 10:06:38;;;;;;;5.00;4.50;;;43.90;16.30;;;;;;5053260;28;20376;-73
2023/04/05 10:09:05;;;;;;;7.00;6.40;;;44.40;16.60;;;;;;5052101;28;20209;-72
2023/04/05 10:11:32;;;;;;;5.20;4.70;;;44.10;15.00;;;;;;5053209;28;20405;-73
2023/04/05 10:14:01;;;;;;;5.90;5.40;;;44.10;15.80;;;;;;5052941;28;20426;-72
2023/04/05 10:16:28;;;;;;;5.13;4.73;;;44.30;15.80;;;;;;5053325;28;20446;-72
2023/04/05 10:18:54;;;;;;;4.13;3.83;;;43.70;15.70;;;;;;5053075;28;20900;-73
2023/04/05 10:21:22;;;;;;;5.07;4.67;;;44.10;16.30;;;;;;5051757;28;20491;-73
2023/04/05 10:23:59;;;;;;;6.23;4.67;;;44.60;16.10;;;;;;5051672;28;20279;-73
2023/04/05 10:26:50;;;;;;;5.33;4.70;;;45.40;16.20;;;;;;5053454;28;20378;-72
2023/04/05 10:29:28;;;;;;;4.60;4.00;;;46.10;15.90;;;;;;5052872;28;20774;-73
2023/04/05 10:32:22;;;;;;;4.90;4.40;;;46.70;16.10;;;;;;5052896;28;20893;-73
2023/04/05 10:35:12;;;;;;;4.57;4.17;;;47.30;15.80;;;;;;5050700;28;20433;-73
2023/04/05 10:38:16;;;;;;;4.60;4.20;;;46.90;15.20;;;;;;5048521;28;20396;-73
2023/04/05 10:40:46;;;;;;;5.60;4.73;;;45.80;14.30;;;;;;5053048;28;20371;-73
2023/04/05 10:43:17;;;;;;;9.03;5.20;;;45.20;14.80;;;;;;5052999;28;20431;-74
2023/04/05 10:45:46;;;;;;;5.50;4.50;;;45.00;15.00;;;;;;5052861;28;20921;-72
2023/04/05 10:48:31;;;;;;;5.13;4.73;;;45.10;14.90;;;;;;5052483;28;20403;-73
2023/04/05 10:50:57;;;;;;;5.63;5.13;;;44.50;14.70;;;;;;5052499;28;20415;-72
2023/04/05 10:53:25;;;;;;;4.77;4.37;;;43.70;14.70;;;;;;5052337;28;20423;-72
2023/04/05 10:55:52;;;;;;;4.80;4.40;;;43.40;15.20;;;;;;5052751;28;20579;-73
2023/04/05 10:58:19;;;;;;;5.50;5.00;;;44.20;15.80;;;;;;5052444;28;20403;-72
2023/04/05 11:00:46;;;;;;;6.83;6.30;;;45.20;16.00;;;;;;5051315;28;20763;-73
2023/04/05 11:03:43;;;;;;;6.33;5.83;;;45.50;14.60;;;;;;5051221;28;20948;-73
2023/04/05 11:06:20;;;;;;;5.23;4.77;;;45.10;14.50;;;;;;5052447;28;20398;-73
2023/04/05 11:08:47;;;;;;;5.07;4.67;;;45.50;15.00;;;;;;5051974;28;20963;-73
2023/04/05 11:11:16;;;;;;;5.40;5.00;;;46.10;15.20;;;;;;5052437;28;20459;-73
2023/04/05 11:13:55;;;;;;;5.03;4.63;;;46.80;15.20;;;;;;5052137;28;20440;-73
2023/04/05 11:16:23;;;;;;;5.23;4.83;;;47.30;15.00;;;;;;5052381;28;20451;-73
2023/04/05 11:18:50;;;;;;;6.03;5.53;;;47.50;14.90;;;;;;5050629;28;20406;-73
2023/04/05 11:21:24;;;;;;;7.30;6.70;;;47.50;14.20;;;;;;5052073;28;20372;-74
2023/04/05 11:24:08;;;;;;;4.77;4.37;;;46.30;13.60;;;;;;5052248;28;20802;-73
2023/04/05 11:26:39;;;;;;;5.10;4.70;;;46.60;14.70;;;;;;5052217;28;20501;-73
2023/04/05 11:29:06;;;;;;;6.50;6.00;;;46.50;14.90;;;;;;5051817;28;20923;-74
2023/04/05 11:31:31;;;;;;;6.40;5.93;;;46.00;14.10;;;;;;5052014;28;20385;-73
2023/04/05 11:33:58;;;;;;;6.20;5.80;;;45.60;14.50;;;;;;5052032;28;20407;-74
2023/04/05 11:36:37;;;;;;;5.00;4.60;;;45.00;14.40;;;;;;5051942;28;20166;-73
2023/04/05 11:39:22;;;;;;;5.80;5.40;;;45.20;14.70;;;;;;5051632;28;20386;-73
2023/04/05 11:42:03;;;;;;;6.03;5.10;;;44.90;14.10;;;;;;5051709;28;20507;-74
2023/04/05 11:44:51;;;;;;;6.10;5.37;;;44.80;14.70;;;;;;5050661;28;20858;-73
2023/04/05 11:47:20;;;;;;;6.27;4.63;;;45.40;15.40;;;;;;5051386;28;20388;-73
2023/04/05 11:49:49;;;;;;;5.23;4.80;;;46.60;15.80;;;;;;5051986;28;20795;-73
2023/04/05 11:52:20;;;;;;;4.20;3.97;;;47.90;15.60;;;;;;5051824;28;20380;-73
2023/04/05 11:54:46;;;;;;;5.53;5.00;;;48.90;15.20;;;;;;5051778;28;20438;-73
2023/04/05 11:57:21;;;;;;;4.40;4.00;;;49.70;15.10;;;;;;5051503;28;20763;-74
2023/04/05 11:59:50;;;;;;;4.63;4.33;;;50.50;15.10;;;;;;5051722;28;20404;-74
2023/04/05 12:02:16;;;;;;;4.50;4.20;;;50.90;14.70;;;;;;5051703;28;20880;-74
2023/04/05 12:04:41;;;;;;;5.03;4.33;;;51.30;14.50;;;;;;5051560;28;20453;-74
2023/04/05 12:07:18;;;;;;;5.10;4.70;;;51.70;14.60;;;;;;5050086;28;20401;-74
2023/04/05 12:10:20;;;;;;;5.93;4.60;;;51.80;14.40;;;;;;5051702;28;20174;-73
2023/04/05 12:12:47;;;;;;;4.40;4.10;;;51.90;14.30;;;;;;5029295;28;20872;-74
2023/04/05 12:15:16;;;;;;;4.90;4.50;;;52.00;14.30;;;;;;5047449;28;20834;-74
2023/04/05 12:17:48;;;;;;;5.27;4.87;;;52.00;14.20;;;;;;5051390;28;20911;-74
2023/04/05 12:20:25;;;;;;;4.97;4.63;;;52.00;14.40;;;;;;5051601;28;20424;-73
2023/04/05 12:22:52;;;;;;;4.77;4.37;;;51.90;14.20;;;;;;5051386;28;20452;-74
2023/04/05 12:25:19;;;;;;;4.80;4.30;;;51.50;13.90;;;;;;5051467;28;20425;-74
2023/04/05 12:27:45;;;;;;;4.97;4.67;;;51.00;13.90;;;;;;5051236;28;20372;-73
2023/04/05 12:30:13;;;;;;;4.63;4.27;;;50.90;14.10;;;;;;5051433;28;20403;-73
2023/04/05 12:32:51;;;;;;;8.37;5.50;;;50.90;14.40;;;;;;5054775;28;20432;-74
2023/04/05 12:35:21;;;;;;;5.07;4.73;;;51.10;14.40;;;;;;5054150;28;20413;-74
2023/04/05 12:37:48;;;;;;;9.63;6.90;;;50.80;14.00;;;;;;5055065;28;20894;-74
2023/04/05 12:40:19;;;;;;;5.53;5.13;;;49.70;13.90;;;;;;5055251;28;20502;-73
2023/04/05 12:42:45;;;;;;;6.13;5.63;;;48.70;14.00;;;;;;5055153;28;20449;-73
2023/04/05 12:45:11;;;;;;;5.07;4.70;;;48.10;14.10;;;;;;5055117;28;20410;-73
2023/04/05 12:47:48;;;;;;;5.13;4.70;;;48.00;14.40;;;;;;5054738;28;20259;-74
2023/04/05 12:50:15;;;;;;;5.93;5.43;;;48.20;14.50;;;;;;5055186;28;20827;-73
2023/04/05 12:53:19;;;;;;;4.90;4.50;;;48.30;14.40;;;;;;5055033;28;20405;-74
2023/04/05 12:55:53;;;;;;;5.80;5.30;;;48.50;14.70;;;;;;5051826;28;20395;-74
2023/04/05 12:58:21;;;;;;;5.87;5.47;;;48.60;14.50;;;;;;5054641;28;20409;-73
2023/04/05 13:00:46;;;;;;;5.70;5.20;;;48.60;14.30;;;;;;5054863;28;20419;-74